Time;durP1;ratioP1;P1;durP2;ratioP2;P2;SDS_P1;SDS_P2;PMS_P1;PMS_P2;Temp;Humidity;BMP_temperature;BMP_pressure;BME280_temperature;BME280_humidity;BME280_pressure;Samples;Min_cycle;Max_cycle;Signal;HPM_P1;HPM_P2
2021/09/22 00:02:19;;;;;;;31.05;21.98;;;;;;;15.75;65.05;102397.03;5015025;28;20058;-69
2021/09/22 00:04:47;;;;;;;28.10;21.88;;;;;;;16.04;64.74;102391.16;5013705;28;20053;-70
2021/09/22 00:07:15;;;;;;;28.20;22.45;;;;;;;16.05;65.29;102387.25;5015520;28;20045;-64
2021/09/22 00:09:42;;;;;;;32.78;22.63;;;;;;;16.30;65.44;102394.25;5028080;28;20196;-70
2021/09/22 00:12:10;;;;;;;26.90;20.60;;;;;;;16.53;64.83;102382.03;5035195;28;20049;-64
2021/09/22 00:14:37;;;;;;;26.25;19.45;;;;;;;16.40;64.76;102389.28;5033194;28;20053;-71
2021/09/22 00:17:05;;;;;;;26.77;20.60;;;;;;;16.33;66.14;102394.44;5035087;28;20052;-70
2021/09/22 00:19:32;;;;;;;27.23;21.15;;;;;;;16.26;65.61;102398.75;5021929;28;20053;-64
2021/09/22 00:22:00;;;;;;;26.23;20.98;;;;;;;16.37;65.88;102401.00;5015220;28;20459;-64
2021/09/22 00:24:27;;;;;;;26.75;22.08;;;;;;;15.86;67.32;102394.88;5013737;28;20521;-64
2021/09/22 00:26:54;;;;;;;25.52;21.02;;;;;;;16.32;67.17;102401.13;5015687;28;20046;-64
2021/09/22 00:29:22;;;;;;;30.23;21.98;;;;;;;16.27;66.76;102389.28;5024121;28;20060;-70
2021/09/22 00:31:49;;;;;;;26.48;21.63;;;;;;;16.33;66.50;102390.81;5034211;28;20416;-70
2021/09/22 00:34:16;;;;;;;25.77;20.67;;;;;;;16.18;66.76;102386.41;5034293;28;20439;-71
2021/09/22 00:36:45;;;;;;;29.58;22.20;;;;;;;16.10;67.84;102391.88;5035040;28;20064;-70
2021/09/22 00:39:13;;;;;;;28.92;20.38;;;;;;;16.03;67.99;102389.53;5028195;28;20042;-70
2021/09/22 00:41:40;;;;;;;25.83;21.75;;;;;;;16.05;68.28;102381.69;5034446;28;20065;-70
2021/09/22 00:44:08;;;;;;;25.38;20.67;;;;;;;16.00;68.50;102375.41;5017099;28;20061;-65
2021/09/22 00:46:35;;;;;;;26.15;21.58;;;;;;;16.03;68.68;102372.00;5034388;28;20049;-64
2021/09/22 00:49:02;;;;;;;30.10;21.48;;;;;;;15.95;68.10;102378.31;5017045;28;20045;-71
2021/09/22 00:51:36;;;;;;;28.13;21.52;;;;;;;15.73;68.31;102376.22;5033301;28;20053;-70
2021/09/22 00:54:04;;;;;;;29.15;21.20;;;;;;;15.77;69.66;102375.31;5000450;28;20053;-64
2021/09/22 00:56:31;;;;;;;27.10;20.83;;;;;;;15.69;69.20;102376.00;5033185;28;20053;-71
2021/09/22 00:58:59;;;;;;;28.75;22.25;;;;;;;15.75;69.71;102369.25;5029055;28;20050;-65
2021/09/22 01:01:26;;;;;;;30.45;23.05;;;;;;;15.55;69.43;102371.59;5016468;28;20049;-64
2021/09/22 01:03:54;;;;;;;26.08;22.08;;;;;;;15.64;69.92;102380.84;5018662;28;20060;-70
2021/09/22 01:06:21;;;;;;;30.00;21.88;;;;;;;15.61;69.46;102378.69;4999975;28;20058;-70
2021/09/22 01:08:48;;;;;;;29.73;22.60;;;;;;;15.62;70.09;102375.59;5019731;28;20176;-71
2021/09/22 01:11:16;;;;;;;29.83;22.38;;;;;;;15.93;69.49;102369.44;5038310;28;20045;-70
2021/09/22 01:13:43;;;;;;;30.58;22.77;;;;;;;15.71;68.86;102372.94;5036844;28;20053;-70
2021/09/22 01:16:11;;;;;;;31.90;22.58;;;;;;;15.83;69.57;102370.47;5038070;28;20057;-70
2021/09/22 01:18:38;;;;;;;31.80;22.05;;;;;;;15.71;70.45;102373.75;5020398;28;20653;-70
2021/09/22 01:21:05;;;;;;;29.33;23.65;;;;;;;15.48;70.09;102363.66;5001176;28;20049;-70
2021/09/22 01:23:33;;;;;;;30.48;23.80;;;;;;;15.49;70.51;102361.69;5016888;28;20050;-64
2021/09/22 01:26:07;;;;;;;34.38;24.58;;;;;;;15.42;70.92;102362.09;5017045;28;20072;-64
2021/09/22 01:28:35;;;;;;;30.88;23.13;;;;;;;15.57;70.15;102361.81;5014051;28;20048;-64
2021/09/22 01:31:06;;;;;;;32.95;23.63;;;;;;;15.48;71.46;102354.50;5018991;28;20416;-70
2021/09/22 01:33:36;;;;;;;27.77;22.58;;;;;;;15.44;70.69;102356.25;5036298;28;20056;-69
2021/09/22 01:36:12;;;;;;;32.42;24.40;;;;;;;15.31;71.29;102355.06;5017852;28;20080;-71
2021/09/22 01:38:40;;;;;;;29.77;23.02;;;;;;;15.62;71.13;102347.81;5002196;28;20386;-70
2021/09/22 01:41:13;;;;;;;30.23;23.85;;;;;;;15.32;70.47;102350.34;5031770;28;20045;-64
2021/09/22 01:43:51;;;;;;;29.63;23.20;;;;;;;15.19;70.85;102345.56;5035776;28;20423;-71
2021/09/22 01:46:23;;;;;;;32.08;24.08;;;;;;;15.08;72.03;102350.47;5015889;28;20046;-65
2021/09/22 01:48:56;;;;;;;33.72;23.13;;;;;;;15.30;72.04;102347.03;4999518;28;20064;-64
2021/09/22 01:51:24;;;;;;;32.60;22.45;;;;;;;15.22;71.55;102344.97;5016142;28;20041;-70
2021/09/22 01:54:09;;;;;;;32.03;24.13;;;;;;;15.17;71.24;102342.25;5019355;28;20069;-64
2021/09/22 01:56:40;;;;;;;30.25;22.45;;;;;;;15.03;72.07;102346.97;5035696;28;20061;-69
2021/09/22 01:59:08;;;;;;;33.90;24.10;;;;;;;14.77;72.94;102356.84;5019483;28;20053;-63
2021/09/22 02:01:55;;;;;;;35.05;24.95;;;;;;;14.59;73.50;102362.09;5025061;28;20057;-70
2021/09/22 02:04:36;;;;;;;34.20;23.95;;;;;;;14.70;73.42;102357.22;5012486;28;20072;-64
2021/09/22 02:07:09;;;;;;;32.42;24.73;;;;;;;14.79;73.08;102349.84;5000026;28;20054;-64
2021/09/22 02:09:37;;;;;;;33.15;26.42;;;;;;;14.23;74.48;102349.84;5016470;28;20053;-70
2021/09/22 02:12:06;;;;;;;35.55;25.58;;;;;;;14.14;74.98;102350.81;5015998;28;20061;-64
2021/09/22 02:14:34;;;;;;;38.20;27.38;;;;;;;14.33;74.49;102344.16;5020483;28;20064;-70
2021/09/22 02:17:03;;;;;;;35.08;24.67;;;;;;;14.68;74.96;102345.59;5034942;28;20049;-64
2021/09/22 02:19:36;;;;;;;33.47;26.25;;;;;;;14.47;74.23;102344.28;5037522;28;20588;-71
2021/09/22 02:22:22;;;;;;;35.35;25.90;;;;;;;14.67;73.20;102343.94;5035627;28;20060;-70
2021/09/22 02:25:06;;;;;;;34.17;26.10;;;;;;;14.49;73.96;102334.50;5036812;28;20400;-70
2021/09/22 02:27:35;;;;;;;33.80;25.20;;;;;;;14.98;73.27;102327.63;5035224;28;20061;-70
2021/09/22 02:30:07;;;;;;;36.47;25.73;;;;;;;14.60;72.84;102310.22;5036393;28;20103;-71
2021/09/22 02:32:37;;;;;;;32.85;25.88;;;;;;;14.26;74.06;102312.44;5051362;28;20061;-63
2021/09/22 02:35:06;;;;;;;34.25;27.20;;;;;;;14.44;75.15;102308.81;5026096;28;20049;-63
2021/09/22 02:37:44;;;;;;;35.08;25.50;;;;;;;14.41;74.28;102301.09;5015298;28;20049;-63
2021/09/22 02:40:31;;;;;;;36.42;26.75;;;;;;;13.95;75.57;102297.28;5051565;28;20049;-63
2021/09/22 02:42:58;;;;;;;38.70;26.95;;;;;;;13.75;76.74;102292.03;5020908;28;20061;-64
2021/09/22 02:45:29;;;;;;;36.92;25.55;;;;;;;14.15;76.56;102299.78;5014810;28;20060;-64
2021/09/22 02:47:56;;;;;;;34.72;24.42;;;;;;;14.49;75.19;102292.09;5016024;28;20061;-64
2021/09/22 02:50:24;;;;;;;34.33;25.92;;;;;;;14.15;73.64;102281.22;5015346;28;20076;-64
2021/09/22 02:52:52;;;;;;;37.83;26.77;;;;;;;14.04;74.58;102281.66;5015573;28;20054;-70
2021/09/22 02:55:20;;;;;;;39.45;27.60;;;;;;;14.00;73.88;102277.84;5025940;28;20062;-69
2021/09/22 02:57:49;;;;;;;40.20;28.33;;;;;;;13.80;74.95;102278.13;5036064;28;20049;-70
2021/09/22 03:00:17;;;;;;;36.47;28.38;;;;;;;13.74;74.61;102282.09;5035116;28;20050;-70
2021/09/22 03:02:49;;;;;;;36.38;26.70;;;;;;;13.97;74.54;102272.88;5035854;28;20057;-70
2021/09/22 03:05:16;;;;;;;36.55;27.67;;;;;;;13.59;73.91;102274.78;5010005;28;20053;-72
2021/09/22 03:07:44;;;;;;;37.85;29.23;;;;;;;13.79;74.62;102273.72;5014892;28;20058;-70
2021/09/22 03:10:12;;;;;;;38.17;26.75;;;;;;;13.86;73.18;102268.63;5016195;28;20516;-71
2021/09/22 03:12:40;;;;;;;36.33;26.92;;;;;;;13.86;73.01;102274.97;5017953;28;20050;-70
2021/09/22 03:15:07;;;;;;;38.97;28.05;;;;;;;13.89;73.05;102281.88;5035360;28;20424;-69
2021/09/22 03:17:35;;;;;;;37.45;25.77;;;;;;;13.62;73.46;102279.72;5035575;28;20061;-69
2021/09/22 03:20:03;;;;;;;36.35;24.92;;;;;;;13.89;74.33;102279.94;5035348;28;20061;-70
2021/09/22 03:22:31;;;;;;;34.35;25.33;;;;;;;14.16;73.69;102269.00;5002309;28;20060;-70
2021/09/22 03:25:11;;;;;;;;;;;;;;;14.36;73.48;102270.69;5016091;28;20054;-70
2021/09/22 03:27:40;;;;;;;36.42;25.77;;;;;;;14.04;73.10;102274.19;5015540;28;19928;-70
2021/09/22 03:30:10;;;;;;;32.35;25.05;;;;;;;14.10;76.07;102275.75;5015500;28;20053;-70
2021/09/22 03:32:46;;;;;;;33.55;25.90;;;;;;;14.17;74.72;102272.63;5027110;28;20046;-69
2021/09/22 03:35:14;;;;;;;37.20;25.85;;;;;;;14.30;75.03;102277.41;5015723;28;20053;-69
2021/09/22 03:37:41;;;;;;;34.35;25.02;;;;;;;14.64;75.37;102272.44;5020798;28;20148;-71
2021/09/22 03:40:10;;;;;;;35.33;25.98;;;;;;;14.86;73.83;102274.56;5049692;28;20053;-69
2021/09/22 03:42:37;;;;;;;37.75;25.90;;;;;;;14.43;73.53;102277.50;5043848;28;20054;-69
2021/09/22 03:45:08;;;;;;;42.50;27.15;;;;;;;14.42;73.92;102277.78;5014940;28;20058;-70
2021/09/22 03:47:35;;;;;;;35.28;25.50;;;;;;;14.82;74.42;102279.09;5015479;28;20493;-64
2021/09/22 03:50:04;;;;;;;44.10;25.20;;;;;;;14.67;74.58;102274.63;5014150;28;20066;-64
2021/09/22 03:52:51;;;;;;;43.50;28.05;;;;;;;14.34;74.27;102272.94;5015382;28;20049;-63
2021/09/22 03:55:19;;;;;;;41.25;26.67;;;;;;;14.03;75.48;102285.56;5013685;28;20066;-64
2021/09/22 03:57:46;;;;;;;37.05;26.55;;;;;;;14.42;75.49;102277.78;5017709;28;20057;-64
2021/09/22 04:00:14;;;;;;;36.30;25.30;;;;;;;14.62;74.38;102281.06;5033075;28;20049;-64
2021/09/22 04:02:42;;;;;;;40.13;26.88;;;;;;;14.58;73.63;102279.19;5033450;28;20049;-63
2021/09/22 04:05:09;;;;;;;36.83;27.08;;;;;;;14.44;73.39;102281.91;5034778;28;20050;-63
2021/09/22 04:07:39;;;;;;;36.17;26.33;;;;;;;14.39;73.92;102284.78;5030797;28;20056;-64
2021/09/22 04:10:07;;;;;;;35.83;27.00;;;;;;;13.76;75.77;102294.50;5013701;28;20057;-64
2021/09/22 04:12:34;;;;;;;38.25;27.38;;;;;;;13.40;77.15;102296.06;5013957;28;20042;-63
2021/09/22 04:15:02;;;;;;;40.10;27.75;;;;;;;13.57;77.32;102302.78;5013571;28;20412;-64
2021/09/22 04:17:30;;;;;;;38.72;26.27;;;;;;;13.38;76.06;102299.13;5014961;28;20080;-64
2021/09/22 04:19:57;;;;;;;36.50;25.95;;;;;;;13.48;74.55;102299.00;5033623;28;20054;-64
2021/09/22 04:22:24;;;;;;;38.53;27.20;;;;;;;13.66;74.46;102302.13;5033141;28;20053;-64
2021/09/22 04:24:52;;;;;;;37.75;26.50;;;;;;;13.54;73.93;102305.31;5016503;28;20049;-63
2021/09/22 04:27:19;;;;;;;36.05;26.30;;;;;;;13.53;73.33;102306.41;5033820;28;20060;-70
2021/09/22 04:30:16;;;;;;;38.88;26.45;;;;;;;13.74;72.60;102298.72;4995190;28;20755;-70
2021/09/22 04:33:02;;;;;;;43.65;27.25;;;;;;;13.59;72.65;102302.47;5014742;28;20056;-70
2021/09/22 04:35:48;;;;;;;37.88;26.50;;;;;;;13.68;71.99;102302.66;5019381;28;20061;-70
2021/09/22 04:38:38;;;;;;;38.58;27.15;;;;;;;13.48;72.70;102301.78;5029548;28;20058;-70
2021/09/22 04:41:24;;;;;;;39.83;26.90;;;;;;;13.71;72.33;102299.28;5041100;28;20506;-70
2021/09/22 04:44:09;;;;;;;42.70;26.90;;;;;;;13.90;70.93;102295.44;5026252;28;20064;-69
2021/09/22 04:46:55;;;;;;;43.10;26.35;;;;;;;13.83;71.08;102296.91;5018855;28;20057;-69
2021/09/22 04:49:42;;;;;;;38.97;26.23;;;;;;;13.95;71.66;102300.91;5036846;28;20060;-70
2021/09/22 04:52:27;;;;;;;37.33;27.45;;;;;;;13.65;71.88;102298.50;5033030;28;20161;-70
2021/09/22 04:55:13;;;;;;;36.65;25.92;;;;;;;14.03;70.90;102293.88;5019606;28;20050;-70
2021/09/22 04:58:00;;;;;;;35.28;24.60;;;;;;;14.09;70.80;102298.22;5036787;28;20069;-69
2021/09/22 05:00:46;;;;;;;36.33;26.45;;;;;;;14.37;69.41;102303.66;5023716;28;20053;-70
2021/09/22 05:03:31;;;;;;;33.17;25.05;;;;;;;14.39;69.05;102295.88;5021769;28;20056;-70
2021/09/22 05:06:18;;;;;;;39.30;26.58;;;;;;;14.05;70.27;102297.97;5039026;28;20049;-70
2021/09/22 05:09:03;;;;;;;38.17;26.50;;;;;;;13.91;70.63;102297.09;5038215;28;20408;-64
2021/09/22 05:11:50;;;;;;;39.45;26.13;;;;;;;13.53;71.21;102307.25;5036977;28;20076;-64
2021/09/22 05:14:36;;;;;;;40.78;26.02;;;;;;;13.73;71.82;102300.63;5037463;28;20059;-64
2021/09/22 05:17:26;;;;;;;38.38;26.02;;;;;;;13.75;71.53;102289.25;5018432;28;20082;-64
2021/09/22 05:20:12;;;;;;;39.17;26.20;;;;;;;13.56;71.82;102298.34;5017362;28;20496;-64
2021/09/22 05:22:58;;;;;;;40.78;27.20;;;;;;;13.78;71.79;102302.50;5037635;28;20056;-64
2021/09/22 05:25:46;;;;;;;37.30;25.83;;;;;;;13.71;71.33;102300.09;5024212;28;20061;-65
2021/09/22 05:28:31;;;;;;;36.25;26.33;;;;;;;13.51;71.96;102306.72;5023907;28;20052;-65
2021/09/22 05:31:18;;;;;;;37.92;26.00;;;;;;;13.49;72.35;102297.88;5036046;28;20053;-64
2021/09/22 05:34:04;;;;;;;36.30;25.90;;;;;;;13.73;72.56;102297.88;5036691;28;20499;-64
2021/09/22 05:36:50;;;;;;;38.35;26.35;;;;;;;13.33;73.65;102301.13;5024206;28;20402;-65
2021/09/22 05:39:36;;;;;;;37.30;25.10;;;;;;;13.43;75.08;102304.59;5033542;28;20057;-65
2021/09/22 05:42:21;;;;;;;39.17;25.42;;;;;;;13.19;75.38;102300.16;5030861;28;20037;-63
2021/09/22 05:45:09;;;;;;;39.58;26.13;;;;;;;13.76;74.08;102304.75;5028973;28;20053;-62
2021/09/22 05:47:55;;;;;;;38.47;25.13;;;;;;;13.43;72.29;102301.00;5032855;28;20055;-64
2021/09/22 05:50:41;;;;;;;35.17;25.70;;;;;;;13.28;73.56;102303.94;5035179;28;20050;-64
2021/09/22 05:53:27;;;;;;;34.08;25.73;;;;;;;13.26;73.28;102312.53;5027799;28;20065;-64
2021/09/22 05:56:14;;;;;;;38.97;24.80;;;;;;;13.32;74.60;102313.28;5031645;28;20491;-65
2021/09/22 05:59:00;;;;;;;36.47;25.23;;;;;;;13.51;74.95;102315.00;5023868;28;20041;-65
2021/09/22 06:01:46;;;;;;;38.80;26.35;;;;;;;13.52;73.93;102313.06;5024382;28;20268;-64
2021/09/22 06:04:32;;;;;;;39.25;25.27;;;;;;;13.35;73.85;102324.59;5027502;28;20054;-65
2021/09/22 06:07:18;;;;;;;41.60;26.55;;;;;;;13.40;73.94;102319.03;5031557;28;20045;-66
2021/09/22 06:10:05;;;;;;;37.22;25.77;;;;;;;13.63;73.48;102317.38;5033245;28;20060;-65
2021/09/22 06:12:53;;;;;;;42.05;26.90;;;;;;;13.70;72.45;102317.03;5026348;28;20045;-64
2021/09/22 06:15:20;;;;;;;41.70;27.15;;;;;;;13.50;73.05;102320.84;5023351;28;20046;-62
2021/09/22 06:17:48;;;;;;;41.33;26.23;;;;;;;13.18;74.05;102321.47;5029176;28;20045;-65
2021/09/22 06:20:15;;;;;;;43.53;27.63;;;;;;;13.32;73.77;102327.13;5022828;28;20050;-62
2021/09/22 06:22:42;;;;;;;39.65;26.38;;;;;;;13.72;72.51;102328.63;5033587;28;20056;-61
2021/09/22 06:25:10;;;;;;;40.58;26.52;;;;;;;13.45;72.39;102324.50;5032520;28;20064;-62
2021/09/22 06:27:38;;;;;;;42.80;26.80;;;;;;;13.41;73.84;102325.38;5028392;28;20053;-63
2021/09/22 06:30:06;;;;;;;39.78;26.55;;;;;;;13.76;71.93;102316.66;5034247;28;20054;-62
2021/09/22 06:32:35;;;;;;;39.17;25.98;;;;;;;14.13;71.35;102325.03;5017875;28;20061;-62
2021/09/22 06:35:11;;;;;;;42.40;26.90;;;;;;;14.41;69.94;102320.50;5035753;28;20049;-63
2021/09/22 06:37:49;;;;;;;35.00;24.40;;;;;;;14.82;70.17;102327.03;5034433;28;20057;-63
2021/09/22 06:40:21;;;;;;;39.40;27.08;;;;;;;14.94;68.67;102335.72;5043315;28;20049;-63
2021/09/22 06:42:49;;;;;;;41.13;25.80;;;;;;;15.16;67.27;102326.75;5047244;28;20050;-62
2021/09/22 06:45:20;;;;;;;39.65;25.95;;;;;;;15.28;65.88;102325.13;5030964;28;20042;-63
2021/09/22 06:47:48;;;;;;;34.85;25.00;;;;;;;15.13;65.86;102321.81;5034380;28;20084;-63
2021/09/22 06:50:15;;;;;;;35.60;25.40;;;;;;;14.78;66.99;102325.19;5037591;28;20056;-65
2021/09/22 06:52:43;;;;;;;34.13;24.77;;;;;;;15.20;67.35;102325.81;5036053;28;20045;-64
2021/09/22 06:55:11;;;;;;;37.05;25.70;;;;;;;15.13;66.69;102333.72;5034597;28;20779;-66
2021/09/22 06:57:38;;;;;;;45.20;26.42;;;;;;;14.90;67.16;102320.81;5034132;28;20546;-62
2021/09/22 07:00:10;;;;;;;39.80;26.40;;;;;;;14.77;67.21;102329.09;5025292;28;20052;-64
2021/09/22 07:02:38;;;;;;;34.67;25.27;;;;;;;14.64;68.37;102328.72;5033576;28;20053;-62
2021/09/22 07:05:07;;;;;;;39.83;25.95;;;;;;;14.60;67.26;102343.50;5034766;28;20072;-63
2021/09/22 07:07:34;;;;;;;38.25;24.98;;;;;;;14.85;68.08;102329.25;5030856;28;20048;-63
2021/09/22 07:10:03;;;;;;;43.08;26.98;;;;;;;14.95;67.31;102333.78;5025547;28;20061;-64
2021/09/22 07:12:31;;;;;;;34.25;24.33;;;;;;;15.28;66.54;102332.63;5019551;28;20042;-64
2021/09/22 07:14:59;;;;;;;38.72;24.80;;;;;;;15.33;65.60;102335.31;5023106;28;20072;-68
2021/09/22 07:17:27;;;;;;;32.58;23.88;;;;;;;15.53;65.67;102333.00;5012034;28;20060;-66
2021/09/22 07:19:54;;;;;;;36.28;24.73;;;;;;;15.34;65.90;102334.19;5033371;28;20041;-66
2021/09/22 07:22:26;;;;;;;39.47;26.08;;;;;;;15.39;65.60;102336.88;5027158;28;20042;-69
2021/09/22 07:24:53;;;;;;;37.00;24.85;;;;;;;14.99;65.61;102349.53;5033821;28;20049;-65
2021/09/22 07:27:20;;;;;;;37.47;24.13;;;;;;;15.30;65.14;102347.03;5032980;28;20041;-69
2021/09/22 07:29:48;;;;;;;36.83;24.08;;;;;;;15.40;65.49;102346.88;5030503;28;20056;-64
2021/09/22 07:32:16;;;;;;;37.58;24.33;;;;;;;15.63;64.30;102351.44;5032986;28;20052;-66
2021/09/22 07:34:44;;;;;;;36.00;25.85;;;;;;;15.72;63.70;102352.38;5017256;28;20056;-66
2021/09/22 07:37:12;;;;;;;43.97;30.10;;;;;;;15.72;63.95;102358.75;5022492;28;20069;-68
2021/09/22 07:39:41;;;;;;;40.88;26.55;;;;;;;15.58;63.73;102355.13;5035692;28;20456;-67
2021/09/22 07:42:12;;;;;;;37.42;24.42;;;;;;;15.88;63.18;102348.16;5031138;28;20049;-68
2021/09/22 07:44:41;;;;;;;37.95;24.80;;;;;;;16.17;62.08;102350.56;5024814;28;20057;-63
2021/09/22 07:47:08;;;;;;;38.70;24.10;;;;;;;16.14;61.70;102345.66;5030930;28;20472;-65
2021/09/22 07:49:36;;;;;;;32.83;23.75;;;;;;;16.06;61.84;102355.53;5029503;28;20480;-65
2021/09/22 07:52:03;;;;;;;32.38;22.77;;;;;;;15.79;62.01;102355.56;5031654;28;20049;-67
2021/09/22 07:54:31;;;;;;;31.42;21.98;;;;;;;16.13;62.11;102361.50;5035989;28;20056;-67
2021/09/22 07:56:58;;;;;;;37.35;27.77;;;;;;;16.26;61.45;102354.28;5035673;28;20052;-66
2021/09/22 07:59:25;;;;;;;38.78;24.98;;;;;;;16.13;61.84;102363.44;5034223;28;20092;-67
2021/09/22 08:01:58;;;;;;;33.78;25.73;;;;;;;16.31;62.22;102357.78;5033257;28;20037;-68
2021/09/22 08:04:25;;;;;;;44.05;27.20;;;;;;;16.34;62.16;102356.31;5032268;28;20041;-67
2021/09/22 08:06:54;;;;;;;44.70;28.13;;;;;;;15.70;63.84;102351.84;5031356;28;20056;-67
2021/09/22 08:09:21;;;;;;;43.45;27.98;;;;;;;15.98;63.95;102358.22;5029003;28;20041;-69
2021/09/22 08:11:49;;;;;;;42.50;27.15;;;;;;;15.99;62.78;102357.91;5033645;28;20049;-68
2021/09/22 08:14:34;;;;;;;38.83;26.52;;;;;;;14.90;66.49;102358.84;5026144;28;20064;-68
2021/09/22 08:17:02;;;;;;;;;;;;;;;15.30;66.34;102352.59;5024486;28;20053;-69
2021/09/22 08:19:29;;;;;;;40.22;27.35;;;;;;;15.72;64.97;102358.75;5020757;28;19922;-67
2021/09/22 08:21:57;;;;;;;40.35;26.48;;;;;;;16.29;63.32;102357.25;5027709;28;20053;-68
2021/09/22 08:24:25;;;;;;;40.80;26.63;;;;;;;15.91;64.12;102353.09;5020193;28;20057;-67
2021/09/22 08:26:53;;;;;;;39.42;30.15;;;;;;;16.08;63.53;102358.00;5022867;28;20041;-73
2021/09/22 08:29:20;;;;;;;43.65;29.05;;;;;;;16.44;62.76;102356.09;5025712;28;20046;-66
2021/09/22 08:31:48;;;;;;;36.50;27.60;;;;;;;16.57;62.13;102360.81;5027289;28;20068;-69
2021/09/22 08:34:17;;;;;;;44.67;27.95;;;;;;;16.65;61.37;102355.31;5033788;28;20049;-67
2021/09/22 08:36:44;;;;;;;49.58;28.42;;;;;;;16.67;61.13;102358.63;5033384;28;20064;-68
2021/09/22 08:39:13;;;;;;;44.65;28.83;;;;;;;16.58;61.15;102357.72;5034993;28;20052;-67
2021/09/22 08:41:40;;;;;;;48.42;32.53;;;;;;;16.59;59.96;102359.38;5034064;28;20053;-73
2021/09/22 08:44:09;;;;;;;45.40;31.02;;;;;;;16.69;58.87;102356.34;5031993;28;20468;-69
2021/09/22 08:46:41;;;;;;;52.33;33.92;;;;;;;16.68;57.49;102346.34;5032129;28;20053;-67
2021/09/22 08:49:09;;;;;;;48.88;34.28;;;;;;;16.69;57.69;102353.56;5031702;28;20076;-68
2021/09/22 08:51:37;;;;;;;47.47;33.10;;;;;;;16.78;57.60;102361.97;5033590;28;20515;-69
2021/09/22 08:54:05;;;;;;;40.80;31.05;;;;;;;17.01;57.09;102355.28;5033741;28;20049;-68
2021/09/22 08:56:35;;;;;;;38.33;29.80;;;;;;;17.14;55.93;102351.59;5033545;28;20060;-69
2021/09/22 08:59:04;;;;;;;39.97;28.67;;;;;;;16.83;56.14;102362.69;5032978;28;20045;-67
2021/09/22 09:01:32;;;;;;;35.53;25.95;;;;;;;16.16;56.55;102360.06;5025800;28;20048;-67
2021/09/22 09:04:13;;;;;;;36.05;26.00;;;;;;;16.20;57.14;102367.47;5032110;28;20412;-67
2021/09/22 09:06:41;;;;;;;39.50;24.88;;;;;;;16.56;55.81;102367.53;5015000;28;20058;-68
2021/09/22 09:09:08;;;;;;;32.03;22.05;;;;;;;16.77;55.84;102361.16;5033862;28;20065;-67
2021/09/22 09:11:38;;;;;;;35.75;22.80;;;;;;;16.96;55.68;102363.78;5034162;28;20053;-68
2021/09/22 09:14:07;;;;;;;31.55;21.85;;;;;;;17.13;55.19;102349.97;5032595;28;20049;-70
2021/09/22 09:16:40;;;;;;;36.17;24.45;;;;;;;17.14;55.26;102359.94;5019391;28;20050;-70
2021/09/22 09:19:16;;;;;;;34.88;23.58;;;;;;;17.37;54.02;102358.78;5032675;28;20053;-70
2021/09/22 09:22:02;;;;;;;34.60;24.25;;;;;;;17.51;53.88;102348.41;5035842;28;20053;-69
2021/09/22 09:24:38;;;;;;;39.60;26.25;;;;;;;17.32;53.89;102352.53;5037605;28;20052;-68
2021/09/22 09:27:23;;;;;;;38.63;28.58;;;;;;;16.25;56.06;102347.09;5035418;28;20053;-71
2021/09/22 09:29:55;;;;;;;38.53;27.35;;;;;;;16.29;56.43;102353.66;5036049;28;20050;-70
2021/09/22 09:32:30;;;;;;;39.65;27.33;;;;;;;16.84;55.33;102357.94;5034984;28;20053;-70
2021/09/22 09:35:13;;;;;;;35.85;26.90;;;;;;;16.75;54.80;102360.63;5036263;28;20049;-68
2021/09/22 09:37:45;;;;;;;39.80;27.90;;;;;;;16.61;55.16;102361.84;5036915;28;20060;-69
2021/09/22 09:40:22;;;;;;;42.78;29.17;;;;;;;16.85;55.15;102356.81;5050394;28;20076;-68
2021/09/22 09:43:12;;;;;;;40.13;27.05;;;;;;;16.97;54.44;102351.47;5035642;28;20059;-68
2021/09/22 09:45:43;;;;;;;39.47;25.98;;;;;;;16.75;52.95;102348.72;5036847;28;20050;-68
2021/09/22 09:48:23;;;;;;;42.55;28.27;;;;;;;16.67;53.94;102347.50;5020070;28;20069;-68
2021/09/22 09:50:53;;;;;;;35.80;26.80;;;;;;;16.88;53.80;102347.81;5034525;28;20592;-71
2021/09/22 09:53:34;;;;;;;32.13;23.67;;;;;;;16.66;53.59;102353.38;5018974;28;20049;-70
2021/09/22 09:56:04;;;;;;;34.33;21.90;;;;;;;16.85;53.31;102332.59;5036540;28;20053;-70
2021/09/22 09:58:42;;;;;;;32.65;21.23;;;;;;;17.41;52.74;102339.47;5019208;28;20054;-68
2021/09/22 10:01:11;;;;;;;22.10;16.45;;;;;;;17.11;51.84;102335.53;5034031;28;20065;-70
2021/09/22 10:03:39;;;;;;;20.80;16.65;;;;;;;17.13;52.47;102330.47;5036669;28;20045;-69
2021/09/22 10:06:08;;;;;;;20.48;14.70;;;;;;;17.43;51.41;102332.44;5034410;28;20401;-68
2021/09/22 10:08:35;;;;;;;26.90;14.95;;;;;;;17.43;51.51;102326.03;5014655;28;20049;-68
2021/09/22 10:11:03;;;;;;;19.75;13.93;;;;;;;17.18;51.61;102327.56;5032971;28;20060;-71
2021/09/22 10:13:32;;;;;;;18.02;13.43;;;;;;;17.71;50.95;102327.50;5035375;28;20056;-68
2021/09/22 10:16:01;;;;;;;19.00;13.30;;;;;;;17.41;49.81;102322.75;5031650;28;20657;-70
2021/09/22 10:18:28;;;;;;;18.73;12.15;;;;;;;17.39;50.00;102319.47;5036376;28;20049;-67
2021/09/22 10:20:56;;;;;;;17.95;13.10;;;;;;;17.45;50.94;102312.63;5034232;28;20061;-70
2021/09/22 10:23:24;;;;;;;19.70;13.25;;;;;;;17.84;49.89;102312.63;5036099;28;20077;-70
2021/09/22 10:25:51;;;;;;;19.60;13.13;;;;;;;17.76;50.12;102310.66;5034454;28;20056;-66
2021/09/22 10:28:41;;;;;;;25.65;12.50;;;;;;;17.59;48.72;102305.00;5035173;28;20101;-67
2021/09/22 10:31:23;;;;;;;19.70;13.20;;;;;;;17.62;49.78;102307.16;5042046;28;20424;-67
2021/09/22 10:33:50;;;;;;;21.13;12.40;;;;;;;17.65;48.89;102292.56;5035908;28;20057;-71
2021/09/22 10:36:36;;;;;;;14.35;10.73;;;;;;;17.52;48.26;102280.38;5020004;28;20432;-71
2021/09/22 10:39:05;;;;;;;17.58;10.70;;;;;;;17.59;48.86;102289.09;5035025;28;20041;-71
2021/09/22 10:41:39;;;;;;;16.47;11.20;;;;;;;17.76;48.24;102285.56;5035515;28;20525;-65
2021/09/22 10:44:13;;;;;;;15.10;10.98;;;;;;;17.78;48.08;102272.91;5032511;28;20056;-65
2021/09/22 10:46:40;;;;;;;17.02;10.50;;;;;;;17.73;47.96;102272.28;5033199;28;20053;-63
2021/09/22 10:49:14;;;;;;;17.77;11.05;;;;;;;17.66;47.84;102274.72;5034028;28;20653;-67
2021/09/22 10:51:45;;;;;;;20.13;10.93;;;;;;;17.54;47.49;102274.50;5036103;28;20056;-58
2021/09/22 10:54:14;;;;;;;15.88;11.15;;;;;;;17.58;48.27;102259.59;5025367;28;20042;-60
2021/09/22 10:57:00;;;;;;;16.77;10.90;;;;;;;17.65;47.33;102265.53;5038766;28;20052;-61
2021/09/22 10:59:27;;;;;;;13.75;10.10;;;;;;;17.55;47.26;102270.56;5015748;28;20060;-65
2021/09/22 11:01:55;;;;;;;20.63;9.98;;;;;;;17.72;46.76;102265.03;5032194;28;20175;-60
2021/09/22 11:04:24;;;;;;;14.55;9.38;;;;;;;17.60;46.28;102265.69;5024365;28;20050;-64
2021/09/22 11:06:54;;;;;;;13.55;8.98;;;;;;;17.73;46.90;102256.34;5011061;28;20053;-60
2021/09/22 11:09:24;;;;;;;17.60;9.13;;;;;;;17.58;47.81;102254.03;5034957;28;20057;-65
2021/09/22 11:12:01;;;;;;;16.65;8.43;;;;;;;17.88;47.10;102241.97;5035025;28;20057;-64
2021/09/22 11:14:51;;;;;;;11.70;8.40;;;;;;;17.95;46.04;102247.06;5034297;28;20053;-66
2021/09/22 11:17:24;;;;;;;10.32;7.60;;;;;;;18.04;46.08;102244.28;5035452;28;20049;-65
2021/09/22 11:19:56;;;;;;;15.85;7.88;;;;;;;18.02;45.88;102243.78;5035227;28;20053;-66
2021/09/22 11:22:26;;;;;;;14.75;7.75;;;;;;;18.21;45.49;102241.50;5032675;28;20053;-67
2021/09/22 11:24:59;;;;;;;10.90;7.35;;;;;;;18.25;45.28;102237.75;5033999;28;20065;-67
2021/09/22 11:27:27;;;;;;;11.13;6.10;;;;;;;18.27;45.72;102240.19;5016849;28;20045;-65
2021/09/22 11:30:02;;;;;;;8.65;6.20;;;;;;;18.43;45.34;102241.38;5034282;28;20045;-57
2021/09/22 11:32:36;;;;;;;10.02;6.35;;;;;;;18.84;45.10;102236.88;5033436;28;20295;-67
2021/09/22 11:35:03;;;;;;;11.07;5.60;;;;;;;18.67;43.37;102230.50;5029851;28;20045;-66